Últimos sismos

MagnitudMag. Fecha y hora Epicentro localización: latitud, longitud loc.: lat., long. ProfundidadProf.
3.7 2020-02-23    22:51:34 73 km al SUR de COALCOMAN, MICH: 18.14°, -103.32° 15 km
3.0 2020-02-23    22:45:33 32 km al NORESTE de RIO GRANDE, OAX: 16.21°, -97.21° 37 km
3.5 2020-02-23    22:34:36 51 km al ESTE de CRUCECITA, OAX: 15.81°, -95.66° 34 km
3.9 2020-02-23    22:07:40 129 km al SUROESTE de TONALA, CHIS: 15.06°, -94.33° 19 km
3.6 2020-02-23    21:58:22 32 km al NORTE de MATIAS ROMERO, OAX: 17.16°, -95.11° 118 km
3.8 2020-02-23    21:51:54 10 km al SUR de CD IXTEPEC, OAX: 16.48°, -95.12° 3 km
3.4 2020-02-23    21:38:40 17 km al NOROESTE de CD IXTEPEC, OAX: 16.69°, -95.20° 92 km
3.4 2020-02-23    21:37:36 97 km al SUROESTE de PINOTEPA NACIONAL, OAX: 15.63°, -98.58° 16 km
3.3 2020-02-23    21:05:15 18 km al SUR de PINOTEPA NACIONAL, OAX: 16.18°, -98.02° 25 km
3.3 2020-02-23    20:58:16 30 km al SUROESTE de OMETEPEC, GRO: 16.43°, -98.50° 29 km
3.9 2020-02-23    20:45:58 146 km al SUROESTE de MAPASTEPEC, CHIS: 14.28°, -93.54° 11 km
3.7 2020-02-23    20:31:09 15 km al SURESTE de PERIBAN, MICH: 19.44°, -102.30° 8 km
2.9 2020-02-23    20:30:07 19 km al NOROESTE de COQUIMATLAN, COL: 19.33°, -103.93° 37 km
3.3 2020-02-23    19:52:13 50 km al SURESTE de SAYULA DE ALEMAN, VER: 17.50°, -94.71° 105 km
3.3 2020-02-23    19:30:40 7 km al SUR de ATOYAC DE ALVAREZ, GRO: 17.14°, -100.45° 32 km
3.8 2020-02-23    18:57:31 128 km al SUROESTE de TONALA, CHIS: 15.17°, -94.48° 16 km
3.7 2020-02-23    18:51:43 37 km al SUR de TONALA, CHIS: 15.75°, -93.78° 87 km
3.6 2020-02-23    17:48:16 6 km al OESTE de CD IXTEPEC, OAX: 16.56°, -95.15° 6 km
3.9 2020-02-23    17:29:07 24 km al SUR de PETATLAN, GRO: 17.32°, -101.27° 6 km
3.4 2020-02-23    17:04:26 6 km al NORTE de JUCHITAN DE ZARAGOZA, OAX: 16.49°, -95.02° 21 km
3.7 2020-02-23    15:44:16 14 km al SURESTE de PERIBAN, MICH: 19.45°, -102.30° 16 km
3.5 2020-02-23    15:24:50 31 km al SUR de PIJIJIAPAN, CHIS: 15.41°, -93.19° 82 km
3.4 2020-02-23    15:23:29 36 km al NORESTE de MANZANILLO, COL: 19.36°, -104.19° 8 km
3.4 2020-02-23    15:19:55 13 km al SUR de PIJIJIAPAN, CHIS: 15.58°, -93.19° 107 km
3.4 2020-02-23    14:42:05 20 km al NOROESTE de COQUIMATLAN, COL: 19.35°, -103.92° 32 km
3.5 2020-02-23    14:17:31 47 km al NOROESTE de VICENTE GUERRERO, BC: 30.89°, -116.44° 15 km
3.9 2020-02-23    13:51:02 16 km al NOROESTE de RIO GRANDE, OAX: 16.10°, -97.54° 14 km
3.7 2020-02-23    13:23:40 24 km al OESTE de CINTALAPA, CHIS: 16.72°, -93.95° 150 km
3.2 2020-02-23    13:03:29 66 km al OESTE de TEHUANTEPEC, OAX: 16.45°, -95.84° 76 km
3.6 2020-02-23    12:45:49 39 km al SUR de SALINA CRUZ, OAX: 15.83°, -95.23° 29 km
3.8 2020-02-23    12:30:48 45 km al SUR de SALINA CRUZ, OAX: 15.77°, -95.17° 12 km
3.7 2020-02-23    12:24:34 42 km al SUR de SALINA CRUZ, OAX: 15.80°, -95.22° 40 km
3.2 2020-02-23    12:20:37 25 km al OESTE de SALINA CRUZ, OAX: 16.17°, -95.43° 16 km
3.4 2020-02-23    12:19:51 51 km al OESTE de TEHUANTEPEC, OAX: 16.31°, -95.72° 85 km
3.9 2020-02-23    11:51:10 77 km al NOROESTE de CINTALAPA, CHIS: 17.13°, -94.29° 161 km
3.6 2020-02-23    11:49:16 10 km al SURESTE de COYUCA DE BENITEZ, GRO: 16.92°, -100.06° 10 km
3.2 2020-02-23    11:44:53 33 km al NORESTE de SAN MARCOS, GRO: 17.03°, -99.21° 46 km
3.7 2020-02-23    10:48:52 19 km al SUR de CD LAZARO CARDENAS, MICH: 17.78°, -102.24° 16 km
3.2 2020-02-23    10:25:27 10 km al SURESTE de MANZANILLO, COL: 19.02°, -104.23° 47 km
3.6 2020-02-23    10:17:01 20 km al NORESTE de MANZANILLO, COL: 19.22°, -104.23° 4 km
3.7 2020-02-23    10:14:14 159 km al SUROESTE de CD HIDALGO, CHIS: 13.68°, -93.22° 17 km
3.3 2020-02-23    09:59:38 26 km al NOROESTE de RIO GRANDE, OAX: 16.18°, -97.60° 18 km
3.4 2020-02-23    09:46:53 23 km al SURESTE de PINOTEPA NACIONAL, OAX: 16.27°, -97.85° 15 km
3.4 2020-02-23    09:32:28 53 km al SUR de GPE VICTORIA(KM.43), BC: 31.81°, -115.08° 15 km
3.3 2020-02-23    09:13:40 51 km al SUR de GPE VICTORIA(KM.43), BC: 31.83°, -115.10° 10 km
3.1 2020-02-23    08:58:41 12 km al NOROESTE de RIO GRANDE, OAX: 16.12°, -97.47° 35 km
3.1 2020-02-23    08:58:01 10 km al NOROESTE de RIO GRANDE, OAX: 16.08°, -97.49° 34 km
3.6 2020-02-23    08:53:13 77 km al OESTE de LA MIRA, MICH: 17.99°, -103.06° 6 km
3.7 2020-02-23    08:00:55 72 km al SUROESTE de CD HIDALGO, CHIS: 14.10°, -92.46° 68 km
3.2 2020-02-23    07:27:07 15 km al SUR de FRONTERA COMALAPA, CHIS: 15.53°, -92.13° 178 km
3.5 2020-02-23    06:56:16 9 km al SUROESTE de CD IXTEPEC, OAX: 16.50°, -95.15° 7 km
3.1 2020-02-23    06:51:20 39 km al NOROESTE de CINTALAPA, CHIS: 17.00°, -93.91° 148 km
3.7 2020-02-23    06:42:29 123 km al SUROESTE de PIJIJIAPAN, CHIS: 15.03°, -94.13° 16 km
3.4 2020-02-23    06:04:42 39 km al NORESTE de MATIAS ROMERO, OAX: 17.20°, -94.91° 126 km
3.1 2020-02-23    05:25:07 30 km al OESTE de PINOTEPA NACIONAL, OAX: 16.40°, -98.33° 14 km
3.7 2020-02-23    05:12:47 27 km al NORTE de CRUCECITA, OAX: 16.01°, -96.11° 49 km
3.4 2020-02-23    05:10:56 7 km al NORTE de S BLAS ATEMPA, OAX: 16.39°, -95.22° 35 km
3.1 2020-02-23    04:51:47 23 km al OESTE de CINTALAPA, CHIS: 16.72°, -93.94° 146 km
3.2 2020-02-23    04:49:45 25 km al NORESTE de MATIAS ROMERO, OAX: 16.99°, -94.85° 123 km
3.3 2020-02-23    04:30:59 55 km al SUR de SAYULA DE ALEMAN, VER: 17.39°, -94.93° 129 km
3.6 2020-02-23    04:26:24 57 km al SUROESTE de ACAPULCO, GRO: 16.44°, -100.20° 3 km
3.8 2020-02-23    04:16:40 53 km al SUR de LAS CHOAPAS, VER: 17.44°, -94.01° 6 km
4.1 2020-02-23    04:12:47 57 km al SUROESTE de LAS CHOAPAS, VER: 17.49°, -94.39° 190 km
3.2 2020-02-23    03:48:09 31 km al SUROESTE de SAN MARCOS, GRO: 16.55°, -99.54° 4 km
3.6 2020-02-23    03:04:49 11 km al SURESTE de PERIBAN, MICH: 19.45°, -102.33° 10 km
3.7 2020-02-23    03:04:10 42 km al SUR de TONALA, CHIS: 15.71°, -93.81° 83 km
3.2 2020-02-23    02:48:17 24 km al NORESTE de PUERTO ESCONDIDO, OAX: 16.07°, -97.00° 4 km
3.7 2020-02-23    02:40:06 24 km al OESTE de RIO GRANDE, OAX: 16.03°, -97.66° 27 km
3.5 2020-02-23    02:05:17 27 km al OESTE de PINOTEPA NACIONAL, OAX: 16.36°, -98.30° 19 km
3.6 2020-02-23    01:58:27 16 km al OESTE de PINOTEPA NACIONAL, OAX: 16.32°, -98.20° 22 km
3.7 2020-02-23    01:58:09 57 km al SUROESTE de COYUCA DE BENITEZ, GRO: 16.61°, -100.43° 5 km
4.3 2020-02-23    01:24:55 54 km al NORESTE de TLACOLULA, OAX: 17.19°, -96.03° 89 km
3.6 2020-02-23    00:45:41 120 km al SURESTE de SALINA CRUZ, OAX: 15.24°, -94.63° 15 km
3.7 2020-02-23    00:44:42 127 km al SUROESTE de TONALA, CHIS: 15.13°, -94.41° 17 km

Sismo de magnitud menor de 4.0

Sismo de magnitud entre 4.0 y 5.9

Sismo de magnitud igual o mayor de 6.0

Si deseas más información,
consulta nuestro

Catálogo de sismos